sensor_id;sensor_type;location;lat;lon;timestamp;temperature;humidity
35593;DHT22;64447;52.140;5.602;2024-03-23T00:56:11;9.40;99.90
35593;DHT22;64447;52.140;5.602;2024-03-23T00:58:36;9.40;99.90
35593;DHT22;64447;52.140;5.602;2024-03-23T01:01:02;9.60;99.90
35593;DHT22;64447;52.140;5.602;2024-03-23T01:03:29;9.70;99.90
35593;DHT22;64447;52.140;5.602;2024-03-23T01:06:01;9.70;99.90
35593;DHT22;64447;52.140;5.602;2024-03-23T01:08:27;9.60;99.90
35593;DHT22;64447;52.140;5.602;2024-03-23T01:11:02;9.50;99.90
35593;DHT22;64447;52.140;5.602;2024-03-23T01:13:28;9.40;99.90
35593;DHT22;64447;52.140;5.602;2024-03-23T01:15:55;9.40;99.90
35593;DHT22;64447;52.140;5.602;2024-03-23T01:18:22;9.30;99.90
35593;DHT22;64447;52.140;5.602;2024-03-23T01:20:48;9.30;99.90
35593;DHT22;64447;52.140;5.602;2024-03-23T01:23:14;9.30;99.90
35593;DHT22;64447;52.140;5.602;2024-03-23T01:25:40;9.40;99.90
35593;DHT22;64447;52.140;5.602;2024-03-23T01:28:06;9.30;99.90
35593;DHT22;64447;52.140;5.602;2024-03-23T01:30:35;9.40;99.90
35593;DHT22;64447;52.140;5.602;2024-03-23T01:33:01;9.20;99.90
35593;DHT22;64447;52.140;5.602;2024-03-23T01:35:28;9.00;99.90
35593;DHT22;64447;52.140;5.602;2024-03-23T01:37:53;9.10;99.90
35593;DHT22;64447;52.140;5.602;2024-03-23T01:40:19;9.10;99.90
35593;DHT22;64447;52.140;5.602;2024-03-23T01:42:58;9.30;99.90
35593;DHT22;64447;52.140;5.602;2024-03-23T01:45:24;9.20;99.90
35593;DHT22;64447;52.140;5.602;2024-03-23T01:47:52;9.30;99.90
35593;DHT22;64447;52.140;5.602;2024-03-23T01:50:22;9.50;99.90
35593;DHT22;64447;52.140;5.602;2024-03-23T01:52:48;9.50;99.90
35593;DHT22;64447;52.140;5.602;2024-03-23T01:55:14;9.50;99.90
35593;DHT22;64447;52.140;5.602;2024-03-23T01:57:40;9.60;99.90
35593;DHT22;64447;52.140;5.602;2024-03-23T02:00:06;9.60;99.90
35593;DHT22;64447;52.140;5.602;2024-03-23T02:02:32;9.60;99.90
35593;DHT22;64447;52.140;5.602;2024-03-23T02:04:57;9.60;99.90
35593;DHT22;64447;52.140;5.602;2024-03-23T02:07:23;9.40;99.90
35593;DHT22;64447;52.140;5.602;2024-03-23T02:09:50;9.30;99.90
35593;DHT22;64447;52.140;5.602;2024-03-23T02:12:17;9.20;99.90
35593;DHT22;64447;52.140;5.602;2024-03-23T02:14:43;9.20;99.90
35593;DHT22;64447;52.140;5.602;2024-03-23T02:17:09;9.20;99.90
35593;DHT22;64447;52.140;5.602;2024-03-23T02:19:34;9.20;99.90
35593;DHT22;64447;52.140;5.602;2024-03-23T02:22:00;9.10;99.90
35593;DHT22;64447;52.140;5.602;2024-03-23T02:24:26;9.10;99.90
35593;DHT22;64447;52.140;5.602;2024-03-23T02:26:51;9.00;99.90
35593;DHT22;64447;52.140;5.602;2024-03-23T02:29:17;9.00;99.90
35593;DHT22;64447;52.140;5.602;2024-03-23T02:31:42;9.10;99.90
35593;DHT22;64447;52.140;5.602;2024-03-23T02:34:08;8.90;99.90
35593;DHT22;64447;52.140;5.602;2024-03-23T02:36:34;8.70;99.90
35593;DHT22;64447;52.140;5.602;2024-03-23T02:38:59;8.70;99.90
35593;DHT22;64447;52.140;5.602;2024-03-23T02:41:25;8.70;99.90
35593;DHT22;64447;52.140;5.602;2024-03-23T02:43:51;8.70;99.90
35593;DHT22;64447;52.140;5.602;2024-03-23T02:46:16;8.70;99.90
35593;DHT22;64447;52.140;5.602;2024-03-23T02:48:42;8.60;99.90
35593;DHT22;64447;52.140;5.602;2024-03-23T02:51:08;8.60;99.90
35593;DHT22;64447;52.140;5.602;2024-03-23T02:53:34;8.60;99.90
35593;DHT22;64447;52.140;5.602;2024-03-23T02:55:59;8.70;99.90
35593;DHT22;64447;52.140;5.602;2024-03-23T02:58:25;8.70;99.90
35593;DHT22;64447;52.140;5.602;2024-03-23T03:00:50;8.70;99.90
35593;DHT22;64447;52.140;5.602;2024-03-23T03:03:16;8.70;99.90
35593;DHT22;64447;52.140;5.602;2024-03-23T03:05:42;8.60;99.90
35593;DHT22;64447;52.140;5.602;2024-03-23T03:08:07;8.50;99.90
35593;DHT22;64447;52.140;5.602;2024-03-23T03:10:33;8.40;99.90
35593;DHT22;64447;52.140;5.602;2024-03-23T03:13:01;8.30;99.90
35593;DHT22;64447;52.140;5.602;2024-03-23T03:15:27;8.30;99.90
35593;DHT22;64447;52.140;5.602;2024-03-23T03:17:53;8.30;99.90
35593;DHT22;64447;52.140;5.602;2024-03-23T03:20:19;8.30;99.90
35593;DHT22;64447;52.140;5.602;2024-03-23T03:22:44;8.30;99.90
35593;DHT22;64447;52.140;5.602;2024-03-23T03:25:10;8.40;99.90
35593;DHT22;64447;52.140;5.602;2024-03-23T03:27:35;8.50;99.90
35593;DHT22;64447;52.140;5.602;2024-03-23T03:30:02;8.50;99.90
35593;DHT22;64447;52.140;5.602;2024-03-23T03:32:30;8.50;99.90
35593;DHT22;64447;52.140;5.602;2024-03-23T03:34:56;8.60;99.90
35593;DHT22;64447;52.140;5.602;2024-03-23T03:37:21;8.40;99.90
35593;DHT22;64447;52.140;5.602;2024-03-23T03:39:47;8.30;99.90
35593;DHT22;64447;52.140;5.602;2024-03-23T03:42:13;8.30;99.90
35593;DHT22;64447;52.140;5.602;2024-03-23T03:44:38;8.40;99.90
35593;DHT22;64447;52.140;5.602;2024-03-23T03:47:05;8.40;99.90
35593;DHT22;64447;52.140;5.602;2024-03-23T03:49:31;8.40;99.90
35593;DHT22;64447;52.140;5.602;2024-03-23T03:51:57;8.30;99.90
35593;DHT22;64447;52.140;5.602;2024-03-23T03:54:22;8.30;99.90
35593;DHT22;64447;52.140;5.602;2024-03-23T03:56:48;8.50;99.90
35593;DHT22;64447;52.140;5.602;2024-03-23T03:59:13;8.30;99.90
35593;DHT22;64447;52.140;5.602;2024-03-23T04:01:39;8.20;99.90
35593;DHT22;64447;52.140;5.602;2024-03-23T04:04:05;8.40;99.90
35593;DHT22;64447;52.140;5.602;2024-03-23T04:06:31;8.30;99.90
35593;DHT22;64447;52.140;5.602;2024-03-23T04:08:58;8.30;99.90
35593;DHT22;64447;52.140;5.602;2024-03-23T04:11:24;8.20;99.90
35593;DHT22;64447;52.140;5.602;2024-03-23T04:13:49;8.10;99.90
35593;DHT22;64447;52.140;5.602;2024-03-23T04:16:28;8.00;99.90
35593;DHT22;64447;52.140;5.602;2024-03-23T04:18:54;8.10;99.90
35593;DHT22;64447;52.140;5.602;2024-03-23T04:21:20;8.00;99.90
35593;DHT22;64447;52.140;5.602;2024-03-23T04:23:46;7.80;99.90
35593;DHT22;64447;52.140;5.602;2024-03-23T04:26:11;7.90;99.90
35593;DHT22;64447;52.140;5.602;2024-03-23T04:28:37;7.90;99.90
35593;DHT22;64447;52.140;5.602;2024-03-23T04:31:05;7.80;99.90
35593;DHT22;64447;52.140;5.602;2024-03-23T04:33:31;7.80;99.90
35593;DHT22;64447;52.140;5.602;2024-03-23T04:35:57;7.80;99.90
35593;DHT22;64447;52.140;5.602;2024-03-23T04:38:22;7.80;99.90
35593;DHT22;64447;52.140;5.602;2024-03-23T04:40:58;7.80;99.90
35593;DHT22;64447;52.140;5.602;2024-03-23T04:43:24;7.90;99.90
35593;DHT22;64447;52.140;5.602;2024-03-23T04:45:49;8.00;99.90
35593;DHT22;64447;52.140;5.602;2024-03-23T04:48:15;7.90;99.90
35593;DHT22;64447;52.140;5.602;2024-03-23T04:50:41;7.90;99.90
35593;DHT22;64447;52.140;5.602;2024-03-23T04:53:07;7.70;99.90
35593;DHT22;64447;52.140;5.602;2024-03-23T04:55:32;7.80;99.90
35593;DHT22;64447;52.140;5.602;2024-03-23T04:57:58;7.80;99.90
35593;DHT22;64447;52.140;5.602;2024-03-23T05:00:24;7.90;99.90
35593;DHT22;64447;52.140;5.602;2024-03-23T05:02:50;8.00;99.90
35593;DHT22;64447;52.140;5.602;2024-03-23T05:05:16;7.90;99.90
35593;DHT22;64447;52.140;5.602;2024-03-23T05:07:41;7.90;99.90
35593;DHT22;64447;52.140;5.602;2024-03-23T05:10:09;7.60;99.90
35593;DHT22;64447;52.140;5.602;2024-03-23T05:12:39;7.60;99.90
35593;DHT22;64447;52.140;5.602;2024-03-23T05:15:06;7.70;99.90
35593;DHT22;64447;52.140;5.602;2024-03-23T05:17:33;7.50;99.90
35593;DHT22;64447;52.140;5.602;2024-03-23T05:19:59;7.30;99.90
35593;DHT22;64447;52.140;5.602;2024-03-23T05:22:25;7.20;99.90
35593;DHT22;64447;52.140;5.602;2024-03-23T05:24:51;7.20;99.90
35593;DHT22;64447;52.140;5.602;2024-03-23T05:27:16;7.20;99.90
35593;DHT22;64447;52.140;5.602;2024-03-23T05:29:42;7.20;99.90
35593;DHT22;64447;52.140;5.602;2024-03-23T05:32:07;7.00;99.90
35593;DHT22;64447;52.140;5.602;2024-03-23T05:34:33;7.00;99.90
35593;DHT22;64447;52.140;5.602;2024-03-23T05:36:59;6.80;99.90
35593;DHT22;64447;52.140;5.602;2024-03-23T05:39:25;6.70;99.90
35593;DHT22;64447;52.140;5.602;2024-03-23T05:41:50;6.70;99.90
35593;DHT22;64447;52.140;5.602;2024-03-23T05:44:16;6.70;99.90
35593;DHT22;64447;52.140;5.602;2024-03-23T05:46:42;6.70;99.90
35593;DHT22;64447;52.140;5.602;2024-03-23T05:49:08;6.60;99.90
35593;DHT22;64447;52.140;5.602;2024-03-23T05:51:34;6.70;99.90
35593;DHT22;64447;52.140;5.602;2024-03-23T05:54:00;6.60;99.90
35593;DHT22;64447;52.140;5.602;2024-03-23T05:56:26;6.60;99.90
35593;DHT22;64447;52.140;5.602;2024-03-23T05:58:52;6.60;99.90
35593;DHT22;64447;52.140;5.602;2024-03-23T06:01:18;6.50;99.90
35593;DHT22;64447;52.140;5.602;2024-03-23T06:03:43;6.60;99.90
35593;DHT22;64447;52.140;5.602;2024-03-23T06:06:10;6.60;99.90
35593;DHT22;64447;52.140;5.602;2024-03-23T06:08:37;6.70;99.90
35593;DHT22;64447;52.140;5.602;2024-03-23T06:11:04;6.80;99.90
35593;DHT22;64447;52.140;5.602;2024-03-23T06:13:33;6.80;99.90
35593;DHT22;64447;52.140;5.602;2024-03-23T06:15:59;6.90;99.90
35593;DHT22;64447;52.140;5.602;2024-03-23T06:18:25;6.80;99.90
35593;DHT22;64447;52.140;5.602;2024-03-23T06:20:51;6.70;99.90
35593;DHT22;64447;52.140;5.602;2024-03-23T06:23:17;6.70;99.90
35593;DHT22;64447;52.140;5.602;2024-03-23T06:25:45;6.90;99.90
35593;DHT22;64447;52.140;5.602;2024-03-23T06:28:11;6.80;99.90
35593;DHT22;64447;52.140;5.602;2024-03-23T06:30:37;6.90;99.90
35593;DHT22;64447;52.140;5.602;2024-03-23T06:33:02;6.90;99.90
35593;DHT22;64447;52.140;5.602;2024-03-23T06:35:28;6.80;99.90
35593;DHT22;64447;52.140;5.602;2024-03-23T06:37:53;6.80;99.90
35593;DHT22;64447;52.140;5.602;2024-03-23T06:40:19;6.70;99.90
35593;DHT22;64447;52.140;5.602;2024-03-23T06:42:45;6.70;99.90
35593;DHT22;64447;52.140;5.602;2024-03-23T06:45:10;6.80;99.90
35593;DHT22;64447;52.140;5.602;2024-03-23T06:47:36;6.70;99.90
35593;DHT22;64447;52.140;5.602;2024-03-23T06:50:03;6.80;99.90
35593;DHT22;64447;52.140;5.602;2024-03-23T06:52:29;6.80;99.90
35593;DHT22;64447;52.140;5.602;2024-03-23T06:54:55;6.90;99.90
35593;DHT22;64447;52.140;5.602;2024-03-23T06:57:21;7.10;99.90
35593;DHT22;64447;52.140;5.602;2024-03-23T06:59:47;7.10;99.90
35593;DHT22;64447;52.140;5.602;2024-03-23T07:02:12;7.10;99.90
35593;DHT22;64447;52.140;5.602;2024-03-23T07:04:38;7.10;99.90
35593;DHT22;64447;52.140;5.602;2024-03-23T07:07:05;7.40;99.90
35593;DHT22;64447;52.140;5.602;2024-03-23T07:09:31;7.50;99.90
35593;DHT22;64447;52.140;5.602;2024-03-23T07:11:57;7.70;99.90
35593;DHT22;64447;52.140;5.602;2024-03-23T07:14:23;7.70;99.90
35593;DHT22;64447;52.140;5.602;2024-03-23T07:16:49;7.70;99.90
35593;DHT22;64447;52.140;5.602;2024-03-23T07:19:18;7.80;99.90
35593;DHT22;64447;52.140;5.602;2024-03-23T07:21:44;7.50;99.90
35593;DHT22;64447;52.140;5.602;2024-03-23T07:24:10;7.50;99.90
35593;DHT22;64447;52.140;5.602;2024-03-23T07:26:36;7.50;99.90
35593;DHT22;64447;52.140;5.602;2024-03-23T07:29:03;7.70;99.90
35593;DHT22;64447;52.140;5.602;2024-03-23T07:31:29;7.60;99.90
35593;DHT22;64447;52.140;5.602;2024-03-23T07:33:54;7.70;99.90
35593;DHT22;64447;52.140;5.602;2024-03-23T07:36:20;7.90;99.90
35593;DHT22;64447;52.140;5.602;2024-03-23T07:38:45;7.80;99.90
35593;DHT22;64447;52.140;5.602;2024-03-23T07:41:18;7.90;99.90
35593;DHT22;64447;52.140;5.602;2024-03-23T07:43:45;7.90;99.90
35593;DHT22;64447;52.140;5.602;2024-03-23T07:46:11;8.00;99.90
35593;DHT22;64447;52.140;5.602;2024-03-23T07:48:38;8.10;99.90
35593;DHT22;64447;52.140;5.602;2024-03-23T07:51:07;8.10;99.90
35593;DHT22;64447;52.140;5.602;2024-03-23T07:53:34;8.30;99.90
35593;DHT22;64447;52.140;5.602;2024-03-23T07:56:02;8.40;99.90
35593;DHT22;64447;52.140;5.602;2024-03-23T07:58:28;8.30;99.90
35593;DHT22;64447;52.140;5.602;2024-03-23T08:00:54;8.40;99.90
35593;DHT22;64447;52.140;5.602;2024-03-23T08:03:20;8.50;99.90
35593;DHT22;64447;52.140;5.602;2024-03-23T08:05:46;8.40;99.90
35593;DHT22;64447;52.140;5.602;2024-03-23T08:08:12;8.30;99.90
35593;DHT22;64447;52.140;5.602;2024-03-23T08:10:50;8.40;99.90
35593;DHT22;64447;52.140;5.602;2024-03-23T08:13:16;8.40;99.90
35593;DHT22;64447;52.140;5.602;2024-03-23T08:15:42;8.30;99.90
35593;DHT22;64447;52.140;5.602;2024-03-23T08:18:09;8.20;99.90
35593;DHT22;64447;52.140;5.602;2024-03-23T08:20:34;8.30;99.90
35593;DHT22;64447;52.140;5.602;2024-03-23T08:23:00;8.50;99.90
35593;DHT22;64447;52.140;5.602;2024-03-23T08:25:26;8.40;99.90
35593;DHT22;64447;52.140;5.602;2024-03-23T08:27:52;8.40;99.90
35593;DHT22;64447;52.140;5.602;2024-03-23T08:30:17;8.50;99.90
35593;DHT22;64447;52.140;5.602;2024-03-23T08:32:44;8.60;99.90
35593;DHT22;64447;52.140;5.602;2024-03-23T08:35:09;8.60;99.90
35593;DHT22;64447;52.140;5.602;2024-03-23T08:37:35;8.60;99.90
35593;DHT22;64447;52.140;5.602;2024-03-23T08:40:00;8.70;99.90
35593;DHT22;64447;52.140;5.602;2024-03-23T08:42:26;8.70;99.90
35593;DHT22;64447;52.140;5.602;2024-03-23T08:44:51;8.80;99.90
35593;DHT22;64447;52.140;5.602;2024-03-23T08:47:17;8.90;99.90
35593;DHT22;64447;52.140;5.602;2024-03-23T08:49:44;9.00;99.90
35593;DHT22;64447;52.140;5.602;2024-03-23T08:52:10;9.00;99.90
35593;DHT22;64447;52.140;5.602;2024-03-23T08:54:35;9.00;99.90
35593;DHT22;64447;52.140;5.602;2024-03-23T08:57:01;8.90;99.90
35593;DHT22;64447;52.140;5.602;2024-03-23T08:59:27;8.90;99.90
35593;DHT22;64447;52.140;5.602;2024-03-23T09:01:56;9.00;99.90
35593;DHT22;64447;52.140;5.602;2024-03-23T09:04:21;9.10;99.90
35593;DHT22;64447;52.140;5.602;2024-03-23T09:06:47;8.90;99.90
35593;DHT22;64447;52.140;5.602;2024-03-23T09:09:12;8.60;99.90
35593;DHT22;64447;52.140;5.602;2024-03-23T09:11:38;8.50;99.90
35593;DHT22;64447;52.140;5.602;2024-03-23T09:14:04;8.30;99.90
35593;DHT22;64447;52.140;5.602;2024-03-23T09:16:29;8.30;99.90
35593;DHT22;64447;52.140;5.602;2024-03-23T09:18:55;8.50;99.90
35593;DHT22;64447;52.140;5.602;2024-03-23T09:21:21;8.60;99.90
35593;DHT22;64447;52.140;5.602;2024-03-23T09:23:46;8.50;99.90
35593;DHT22;64447;52.140;5.602;2024-03-23T09:26:12;8.50;99.90
35593;DHT22;64447;52.140;5.602;2024-03-23T09:28:38;8.40;99.90
35593;DHT22;64447;52.140;5.602;2024-03-23T09:31:08;8.40;99.90
35593;DHT22;64447;52.140;5.602;2024-03-23T09:33:34;8.20;99.90
35593;DHT22;64447;52.140;5.602;2024-03-23T09:36:04;8.20;99.90
35593;DHT22;64447;52.140;5.602;2024-03-23T09:38:30;8.10;99.90
35593;DHT22;64447;52.140;5.602;2024-03-23T09:40:57;8.00;99.90
35593;DHT22;64447;52.140;5.602;2024-03-23T09:43:22;7.70;99.90
35593;DHT22;64447;52.140;5.602;2024-03-23T09:45:49;7.60;99.90
35593;DHT22;64447;52.140;5.602;2024-03-23T09:48:15;7.40;99.90
35593;DHT22;64447;52.140;5.602;2024-03-23T09:50:43;7.50;99.90
35593;DHT22;64447;52.140;5.602;2024-03-23T09:53:10;7.70;99.90
35593;DHT22;64447;52.140;5.602;2024-03-23T09:55:41;8.00;99.90
35593;DHT22;64447;52.140;5.602;2024-03-23T09:58:07;8.10;99.90
35593;DHT22;64447;52.140;5.602;2024-03-23T10:00:34;8.10;99.90
35593;DHT22;64447;52.140;5.602;2024-03-23T10:03:00;8.10;99.90
35593;DHT22;64447;52.140;5.602;2024-03-23T10:05:30;8.00;99.90
35593;DHT22;64447;52.140;5.602;2024-03-23T10:08:01;7.70;99.90
35593;DHT22;64447;52.140;5.602;2024-03-23T10:10:45;7.60;99.90
35593;DHT22;64447;52.140;5.602;2024-03-23T10:13:23;7.60;99.90
35593;DHT22;64447;52.140;5.602;2024-03-23T10:15:55;7.90;99.90
35593;DHT22;64447;52.140;5.602;2024-03-23T10:18:21;8.20;99.90
35593;DHT22;64447;52.140;5.602;2024-03-23T10:21:06;8.50;99.90
35593;DHT22;64447;52.140;5.602;2024-03-23T10:23:35;8.80;99.90
35593;DHT22;64447;52.140;5.602;2024-03-23T10:26:18;9.00;99.90
35593;DHT22;64447;52.140;5.602;2024-03-23T10:28:59;9.10;99.90
35593;DHT22;64447;52.140;5.602;2024-03-23T10:31:36;9.20;99.90
35593;DHT22;64447;52.140;5.602;2024-03-23T10:34:05;9.30;99.90
35593;DHT22;64447;52.140;5.602;2024-03-23T10:36:31;9.30;99.90
35593;DHT22;64447;52.140;5.602;2024-03-23T10:38:57;9.30;99.90
35593;DHT22;64447;52.140;5.602;2024-03-23T10:41:29;9.10;99.90
35593;DHT22;64447;52.140;5.602;2024-03-23T10:43:58;9.20;99.90
35593;DHT22;64447;52.140;5.602;2024-03-23T10:46:24;9.30;99.90
35593;DHT22;64447;52.140;5.602;2024-03-23T10:48:50;9.30;99.90
35593;DHT22;64447;52.140;5.602;2024-03-23T10:51:16;9.30;99.90
35593;DHT22;64447;52.140;5.602;2024-03-23T10:53:41;9.30;99.90
35593;DHT22;64447;52.140;5.602;2024-03-23T10:56:08;9.60;99.90
35593;DHT22;64447;52.140;5.602;2024-03-23T10:58:44;9.70;99.90
35593;DHT22;64447;52.140;5.602;2024-03-23T11:01:12;9.60;99.90
35593;DHT22;64447;52.140;5.602;2024-03-23T11:03:39;9.50;99.90
35593;DHT22;64447;52.140;5.602;2024-03-23T11:06:09;9.10;99.90
35593;DHT22;64447;52.140;5.602;2024-03-23T11:08:40;9.10;99.90
35593;DHT22;64447;52.140;5.602;2024-03-23T11:11:14;8.70;99.90
35593;DHT22;64447;52.140;5.602;2024-03-23T11:13:40;8.30;99.90
35593;DHT22;64447;52.140;5.602;2024-03-23T11:16:25;8.10;99.90
35593;DHT22;64447;52.140;5.602;2024-03-23T11:18:53;7.90;99.90
35593;DHT22;64447;52.140;5.602;2024-03-23T11:21:54;7.90;99.90
35593;DHT22;64447;52.140;5.602;2024-03-23T11:24:21;7.90;99.90
35593;DHT22;64447;52.140;5.602;2024-03-23T11:26:48;8.10;99.90
35593;DHT22;64447;52.140;5.602;2024-03-23T11:29:15;8.30;99.90
35593;DHT22;64447;52.140;5.602;2024-03-23T11:31:51;8.50;99.90
35593;DHT22;64447;52.140;5.602;2024-03-23T11:34:18;8.60;99.90
35593;DHT22;64447;52.140;5.602;2024-03-23T11:36:45;8.90;99.90
35593;DHT22;64447;52.140;5.602;2024-03-23T11:39:16;9.00;99.90
35593;DHT22;64447;52.140;5.602;2024-03-23T11:41:52;8.90;99.90
35593;DHT22;64447;52.140;5.602;2024-03-23T11:44:19;8.90;99.90
35593;DHT22;64447;52.140;5.602;2024-03-23T11:46:46;8.80;99.90
35593;DHT22;64447;52.140;5.602;2024-03-23T11:49:28;8.90;99.90
35593;DHT22;64447;52.140;5.602;2024-03-23T11:51:56;9.00;99.90
35593;DHT22;64447;52.140;5.602;2024-03-23T11:54:23;9.30;99.90
35593;DHT22;64447;52.140;5.602;2024-03-23T11:57:00;9.40;99.90
35593;DHT22;64447;52.140;5.602;2024-03-23T12:02:00;9.70;99.90
35593;DHT22;64447;52.140;5.602;2024-03-23T12:04:29;9.80;99.90
35593;DHT22;64447;52.140;5.602;2024-03-23T12:07:17;10.10;99.90
35593;DHT22;64447;52.140;5.602;2024-03-23T12:10:06;10.10;99.90
35593;DHT22;64447;52.140;5.602;2024-03-23T12:12:32;10.10;99.90
35593;DHT22;64447;52.140;5.602;2024-03-23T12:15:05;10.00;99.90
35593;DHT22;64447;52.140;5.602;2024-03-23T12:17:32;9.90;99.90
35593;DHT22;64447;52.140;5.602;2024-03-23T12:19:58;9.90;99.90
35593;DHT22;64447;52.140;5.602;2024-03-23T12:22:24;9.80;99.90
35593;DHT22;64447;52.140;5.602;2024-03-23T12:24:50;9.70;99.90
35593;DHT22;64447;52.140;5.602;2024-03-23T12:27:16;9.80;99.90
35593;DHT22;64447;52.140;5.602;2024-03-23T12:29:43;9.70;99.90
35593;DHT22;64447;52.140;5.602;2024-03-23T12:32:11;9.70;99.90
35593;DHT22;64447;52.140;5.602;2024-03-23T12:34:37;9.60;99.90
35593;DHT22;64447;52.140;5.602;2024-03-23T12:37:03;9.50;99.90
35593;DHT22;64447;52.140;5.602;2024-03-23T12:39:29;9.40;99.90
35593;DHT22;64447;52.140;5.602;2024-03-23T12:41:55;9.50;99.90
35593;DHT22;64447;52.140;5.602;2024-03-23T12:44:20;9.60;99.90
35593;DHT22;64447;52.140;5.602;2024-03-23T12:46:46;9.80;99.90
35593;DHT22;64447;52.140;5.602;2024-03-23T12:49:12;9.80;99.90
35593;DHT22;64447;52.140;5.602;2024-03-23T12:51:39;9.60;99.90
35593;DHT22;64447;52.140;5.602;2024-03-23T12:54:04;9.60;99.90
35593;DHT22;64447;52.140;5.602;2024-03-23T12:56:30;9.50;99.90
35593;DHT22;64447;52.140;5.602;2024-03-23T12:58:56;9.50;99.90
35593;DHT22;64447;52.140;5.602;2024-03-23T13:01:26;9.70;99.90
35593;DHT22;64447;52.140;5.602;2024-03-23T13:03:52;9.70;99.90
35593;DHT22;64447;52.140;5.602;2024-03-23T13:06:18;9.70;99.90
35593;DHT22;64447;52.140;5.602;2024-03-23T13:08:45;9.70;99.90
35593;DHT22;64447;52.140;5.602;2024-03-23T13:11:12;9.50;99.90
35593;DHT22;64447;52.140;5.602;2024-03-23T13:13:38;9.40;99.90
35593;DHT22;64447;52.140;5.602;2024-03-23T13:16:04;9.50;99.90
35593;DHT22;64447;52.140;5.602;2024-03-23T13:18:31;9.30;99.90
35593;DHT22;64447;52.140;5.602;2024-03-23T13:20:57;9.40;99.90
35593;DHT22;64447;52.140;5.602;2024-03-23T13:23:23;9.40;99.90
35593;DHT22;64447;52.140;5.602;2024-03-23T13:25:53;9.20;99.90
35593;DHT22;64447;52.140;5.602;2024-03-23T13:28:20;9.10;99.90
35593;DHT22;64447;52.140;5.602;2024-03-23T13:30:52;8.90;99.90
35593;DHT22;64447;52.140;5.602;2024-03-23T13:33:18;8.90;99.90
35593;DHT22;64447;52.140;5.602;2024-03-23T13:35:55;9.00;99.90
35593;DHT22;64447;52.140;5.602;2024-03-23T13:38:22;9.30;99.90
35593;DHT22;64447;52.140;5.602;2024-03-23T13:40:55;9.40;99.90
35593;DHT22;64447;52.140;5.602;2024-03-23T13:43:22;9.40;99.90
35593;DHT22;64447;52.140;5.602;2024-03-23T13:45:49;9.00;99.90
35593;DHT22;64447;52.140;5.602;2024-03-23T13:48:16;8.60;99.90
35593;DHT22;64447;52.140;5.602;2024-03-23T13:50:43;8.40;99.90
35593;DHT22;64447;52.140;5.602;2024-03-23T13:53:09;8.40;99.90
35593;DHT22;64447;52.140;5.602;2024-03-23T13:55:34;8.40;99.90
35593;DHT22;64447;52.140;5.602;2024-03-23T13:58:01;8.50;99.90
35593;DHT22;64447;52.140;5.602;2024-03-23T14:00:27;8.60;99.90
35593;DHT22;64447;52.140;5.602;2024-03-23T14:02:52;8.80;99.90
35593;DHT22;64447;52.140;5.602;2024-03-23T14:05:18;8.90;99.90
35593;DHT22;64447;52.140;5.602;2024-03-23T14:07:44;8.90;99.90
35593;DHT22;64447;52.140;5.602;2024-03-23T14:10:10;9.10;99.90
35593;DHT22;64447;52.140;5.602;2024-03-23T14:12:36;9.30;99.90
35593;DHT22;64447;52.140;5.602;2024-03-23T14:15:06;9.30;99.90
35593;DHT22;64447;52.140;5.602;2024-03-23T14:17:32;9.30;99.90
35593;DHT22;64447;52.140;5.602;2024-03-23T14:19:58;9.20;99.90
35593;DHT22;64447;52.140;5.602;2024-03-23T14:22:27;9.20;99.90
35593;DHT22;64447;52.140;5.602;2024-03-23T14:24:52;9.40;99.90
35593;DHT22;64447;52.140;5.602;2024-03-23T14:27:18;9.50;99.90
35593;DHT22;64447;52.140;5.602;2024-03-23T14:29:47;9.60;99.90
35593;DHT22;64447;52.140;5.602;2024-03-23T14:32:13;9.60;99.90
35593;DHT22;64447;52.140;5.602;2024-03-23T14:34:40;9.60;99.90
35593;DHT22;64447;52.140;5.602;2024-03-23T14:37:06;9.60;99.90
35593;DHT22;64447;52.140;5.602;2024-03-23T14:39:32;9.50;99.90
35593;DHT22;64447;52.140;5.602;2024-03-23T14:42:01;9.50;99.90
35593;DHT22;64447;52.140;5.602;2024-03-23T14:44:28;9.50;99.90
35593;DHT22;64447;52.140;5.602;2024-03-23T14:46:53;9.60;99.90
35593;DHT22;64447;52.140;5.602;2024-03-23T14:49:20;9.60;99.90
35593;DHT22;64447;52.140;5.602;2024-03-23T14:51:46;9.40;99.90
35593;DHT22;64447;52.140;5.602;2024-03-23T14:54:12;9.50;99.90
35593;DHT22;64447;52.140;5.602;2024-03-23T14:56:38;9.30;99.90
35593;DHT22;64447;52.140;5.602;2024-03-23T14:59:04;9.30;99.90
35593;DHT22;64447;52.140;5.602;2024-03-23T15:01:31;9.40;99.90
35593;DHT22;64447;52.140;5.602;2024-03-23T15:03:57;9.60;99.90
35593;DHT22;64447;52.140;5.602;2024-03-23T15:06:23;9.70;99.90
35593;DHT22;64447;52.140;5.602;2024-03-23T15:08:48;9.80;99.90
35593;DHT22;64447;52.140;5.602;2024-03-23T15:11:15;9.70;99.90
35593;DHT22;64447;52.140;5.602;2024-03-23T15:13:43;9.70;99.90
35593;DHT22;64447;52.140;5.602;2024-03-23T15:16:09;9.50;99.90
35593;DHT22;64447;52.140;5.602;2024-03-23T15:18:35;9.40;99.90
35593;DHT22;64447;52.140;5.602;2024-03-23T15:21:02;9.20;99.90
35593;DHT22;64447;52.140;5.602;2024-03-23T15:23:30;9.10;99.90
35593;DHT22;64447;52.140;5.602;2024-03-23T15:25:57;9.30;99.90
35593;DHT22;64447;52.140;5.602;2024-03-23T15:28:23;9.40;99.90
35593;DHT22;64447;52.140;5.602;2024-03-23T15:30:49;9.40;99.90
35593;DHT22;64447;52.140;5.602;2024-03-23T15:33:14;9.50;99.90
35593;DHT22;64447;52.140;5.602;2024-03-23T15:35:40;9.60;99.90
35593;DHT22;64447;52.140;5.602;2024-03-23T15:38:06;9.70;99.90
35593;DHT22;64447;52.140;5.602;2024-03-23T15:40:31;9.70;99.90
35593;DHT22;64447;52.140;5.602;2024-03-23T15:42:57;9.80;99.90
35593;DHT22;64447;52.140;5.602;2024-03-23T15:45:23;10.10;99.90
35593;DHT22;64447;52.140;5.602;2024-03-23T15:47:48;9.80;99.90
35593;DHT22;64447;52.140;5.602;2024-03-23T15:50:15;9.70;99.90
35593;DHT22;64447;52.140;5.602;2024-03-23T15:52:40;9.70;99.90
35593;DHT22;64447;52.140;5.602;2024-03-23T15:55:15;9.60;99.90
35593;DHT22;64447;52.140;5.602;2024-03-23T15:57:41;9.50;99.90
35593;DHT22;64447;52.140;5.602;2024-03-23T16:00:07;9.50;99.90
35593;DHT22;64447;52.140;5.602;2024-03-23T16:02:35;9.50;99.90
35593;DHT22;64447;52.140;5.602;2024-03-23T16:05:00;9.40;99.90
35593;DHT22;64447;52.140;5.602;2024-03-23T16:07:28;9.40;99.90
35593;DHT22;64447;52.140;5.602;2024-03-23T16:09:54;9.20;99.90
35593;DHT22;64447;52.140;5.602;2024-03-23T16:12:19;9.20;99.90
35593;DHT22;64447;52.140;5.602;2024-03-23T16:14:45;9.20;99.90
35593;DHT22;64447;52.140;5.602;2024-03-23T16:17:10;9.00;99.90
35593;DHT22;64447;52.140;5.602;2024-03-23T16:19:36;9.00;99.90
35593;DHT22;64447;52.140;5.602;2024-03-23T16:22:02;9.00;99.90
35593;DHT22;64447;52.140;5.602;2024-03-23T16:24:27;9.00;99.90
35593;DHT22;64447;52.140;5.602;2024-03-23T16:26:53;8.80;99.90
35593;DHT22;64447;52.140;5.602;2024-03-23T16:29:19;8.90;99.90
35593;DHT22;64447;52.140;5.602;2024-03-23T16:31:44;8.90;99.90
35593;DHT22;64447;52.140;5.602;2024-03-23T16:34:10;8.90;99.90
35593;DHT22;64447;52.140;5.602;2024-03-23T16:36:35;8.70;99.90
35593;DHT22;64447;52.140;5.602;2024-03-23T16:39:01;8.80;99.90
35593;DHT22;64447;52.140;5.602;2024-03-23T16:41:27;8.80;99.90